createdAt,value
2022-09-05T00:04:51.321Z,63.20
2022-09-05T00:10:22.819Z,63.30
2022-09-05T00:15:58.652Z,64.30
2022-09-05T00:24:26.448Z,64.30
2022-09-05T00:27:25.346Z,64.60
2022-09-05T00:33:17.181Z,65.30
2022-09-05T00:38:42.889Z,65.50
2022-09-05T00:44:07.352Z,65.30
2022-09-05T00:49:36.442Z,66.20
2022-09-05T00:55:12.069Z,66.40
2022-09-05T01:00:49.819Z,66.60
2022-09-05T01:06:27.766Z,66.00
2022-09-05T01:12:01.922Z,66.30
2022-09-05T01:17:48.410Z,66.40
2022-09-05T01:23:36.512Z,66.20
2022-09-05T01:29:16.800Z,65.80
2022-09-05T01:34:55.599Z,65.90
2022-09-05T01:40:25.431Z,65.90
2022-09-05T01:45:53.675Z,66.30
2022-09-05T01:51:28.621Z,66.80
2022-09-05T01:57:01.387Z,66.30
2022-09-05T02:02:38.356Z,66.60
2022-09-05T02:08:27.213Z,66.30
2022-09-05T02:13:59.901Z,66.30
2022-09-05T02:19:26.800Z,66.10
2022-09-05T02:24:59.813Z,66.30
2022-09-05T02:30:47.418Z,66.00
2022-09-05T02:36:33.279Z,66.40
2022-09-05T02:45:13.701Z,66.20
2022-09-05T02:47:50.057Z,66.50
2022-09-05T02:57:42.878Z,66.50
2022-09-05T02:59:09.914Z,66.40
2022-09-05T03:04:40.370Z,66.20
2022-09-05T03:10:18.198Z,65.90
2022-09-05T03:16:28.840Z,65.60
2022-09-05T03:22:17.981Z,65.60
2022-09-05T03:28:19.210Z,65.60
2022-09-05T03:34:05.880Z,65.60
2022-09-05T03:40:16.238Z,65.70
2022-09-05T03:46:03.936Z,66.30
2022-09-05T03:57:05.818Z,66.60
2022-09-05T03:57:41.427Z,68.30
2022-09-05T04:08:06.124Z,67.40
2022-09-05T04:09:06.781Z,67.80
2022-09-05T04:14:42.028Z,67.70
2022-09-05T04:20:11.914Z,67.50
2022-09-05T04:25:46.721Z,67.90
2022-09-05T04:31:19.188Z,67.50
2022-09-05T04:36:43.051Z,67.30
2022-09-05T04:42:19.614Z,67.20
2022-09-05T04:47:47.911Z,67.80
2022-09-05T04:53:25.236Z,68.40
2022-09-05T05:00:08.947Z,68.60
2022-09-05T05:06:08.226Z,68.70
2022-09-05T05:13:26.566Z,68.60
2022-09-05T05:18:14.834Z,69.20
2022-09-05T05:21:57.002Z,68.80
2022-09-05T05:27:25.223Z,68.80
2022-09-05T05:32:52.524Z,69.00
2022-09-05T05:38:31.108Z,68.90
2022-09-05T05:43:55.087Z,69.20
2022-09-05T05:49:43.793Z,68.90
2022-09-05T05:55:50.530Z,68.30
2022-09-05T06:01:38.122Z,68.90
2022-09-05T06:07:10.692Z,68.00
2022-09-05T06:15:09.055Z,67.30
2022-09-05T06:19:28.869Z,67.20
2022-09-05T06:25:57.275Z,67.10
2022-09-05T06:31:43.485Z,66.10
2022-09-05T06:37:18.753Z,65.70
2022-09-05T06:43:01.084Z,64.90
2022-09-05T06:48:44.480Z,63.20
2022-09-05T06:54:39.990Z,61.60
2022-09-05T07:00:22.658Z,61.20
2022-09-05T07:05:55.663Z,60.90
2022-09-05T07:11:23.130Z,60.10
2022-09-05T07:16:50.880Z,60.20
2022-09-05T07:22:46.530Z,59.10
2022-09-05T07:28:27.121Z,58.20
2022-09-05T07:34:06.132Z,58.40
2022-09-05T07:39:48.983Z,57.60
2022-09-05T07:45:17.755Z,57.60
2022-09-05T07:54:08.964Z,57.40
2022-09-05T07:57:22.229Z,56.30
2022-09-05T08:02:32.899Z,56.10
2022-09-05T08:07:57.155Z,57.10
2022-09-05T08:13:23.406Z,56.40
2022-09-05T08:19:08.995Z,56.10
2022-09-05T08:24:37.542Z,55.60
2022-09-05T08:30:26.262Z,54.90
2022-09-05T08:35:53.292Z,54.30
2022-09-05T08:41:51.233Z,54.20
2022-09-05T08:47:21.818Z,55.10
2022-09-05T08:52:50.069Z,54.40
2022-09-05T08:58:34.295Z,54.40
2022-09-05T09:04:11.653Z,53.70
2022-09-05T09:09:46.352Z,54.00
2022-09-05T09:15:14.669Z,53.10
2022-09-05T09:20:45.900Z,52.30
2022-09-05T09:26:15.853Z,51.20
2022-09-05T09:32:06.641Z,51.90
2022-09-05T09:38:04.626Z,52.30
2022-09-05T09:43:29.161Z,50.20
2022-09-05T09:49:22.645Z,50.30
2022-09-05T09:55:39.093Z,48.60
2022-09-05T10:01:36.343Z,47.80
2022-09-05T10:10:54.669Z,45.90
2022-09-05T10:13:28.784Z,46.40
2022-09-05T10:19:03.589Z,45.60
2022-09-05T10:25:19.182Z,45.40
2022-09-05T10:32:32.633Z,44.80
2022-09-05T10:36:32.393Z,43.70
2022-09-05T10:42:03.117Z,43.40
2022-09-05T10:47:37.260Z,43.50
2022-09-05T10:53:20.128Z,40.70
2022-09-05T11:02:15.749Z,43.50
2022-09-05T11:04:50.361Z,40.90
2022-09-05T11:10:19.319Z,42.00
2022-09-05T11:16:03.508Z,41.80
2022-09-05T11:21:42.486Z,41.40
2022-09-05T11:27:23.820Z,40.70
2022-09-05T11:38:10.464Z,39.20
2022-09-05T11:39:53.715Z,39.50
2022-09-05T11:45:18.323Z,40.00
2022-09-05T11:51:05.463Z,39.80
2022-09-05T11:57:20.117Z,37.40
2022-09-05T12:03:57.357Z,36.00
2022-09-05T12:09:29.941Z,34.80
2022-09-05T12:15:13.700Z,34.80
2022-09-05T12:20:49.378Z,33.90
2022-09-05T12:27:44.957Z,33.40
2022-09-05T12:34:23.493Z,33.00
2022-09-05T12:40:40.243Z,33.90
2022-09-05T12:44:38.306Z,33.40
2022-09-05T12:49:35.071Z,32.60
2022-09-05T12:55:03.774Z,32.30
2022-09-05T13:03:14.237Z,32.30
2022-09-05T13:06:22.950Z,31.50
2022-09-05T13:15:00.898Z,31.60
2022-09-05T13:17:51.605Z,30.50
2022-09-05T13:23:21.795Z,31.40
2022-09-05T13:29:09.992Z,31.00
2022-09-05T13:38:19.876Z,30.80
2022-09-05T13:40:23.092Z,31.30
2022-09-05T13:46:10.905Z,31.40
2022-09-05T13:51:39.356Z,32.30
2022-09-05T13:57:32.476Z,32.20
2022-09-05T14:03:38.155Z,31.80
2022-09-05T14:15:11.312Z,32.70
2022-09-05T14:20:59.699Z,33.20
2022-09-05T14:26:30.033Z,31.70
2022-09-05T14:37:41.743Z,31.00
2022-09-05T14:37:44.630Z,30.30
2022-09-05T14:43:07.624Z,28.90
2022-09-05T14:48:33.196Z,29.00
2022-09-05T15:02:42.723Z,24.20
2022-09-05T15:04:47.443Z,22.60
2022-09-05T15:12:14.426Z,21.10
2022-09-05T15:15:38.546Z,19.80
2022-09-05T15:20:44.727Z,19.50
2022-09-05T15:25:52.237Z,19.20
2022-09-05T15:30:58.079Z,21.50
2022-09-05T15:36:05.285Z,23.20
2022-09-05T15:41:19.953Z,22.70
2022-09-05T15:46:34.327Z,23.60
2022-09-05T15:51:47.994Z,23.40
2022-09-05T15:56:54.917Z,24.20
2022-09-05T16:02:00.912Z,25.50
2022-09-05T16:10:34.786Z,26.60
2022-09-05T16:12:34.414Z,27.40
2022-09-05T16:23:11.538Z,28.20
2022-09-05T16:23:39.347Z,27.20
2022-09-05T16:28:41.520Z,27.80
2022-09-05T16:33:47.175Z,28.70
2022-09-05T16:38:53.763Z,29.20
2022-09-05T16:44:04.661Z,29.40
2022-09-05T16:49:15.086Z,29.70
2022-09-05T16:54:25.552Z,30.20
2022-09-05T16:59:33.088Z,31.60
2022-09-05T17:05:06.239Z,32.40
2022-09-05T17:10:12.620Z,33.00
2022-09-05T17:15:21.700Z,33.50
2022-09-05T17:20:28.977Z,33.90
2022-09-05T17:29:26.431Z,34.40
2022-09-05T17:36:41.303Z,35.90
2022-09-05T17:42:03.375Z,36.40
2022-09-05T17:47:15.320Z,37.00
2022-09-05T17:52:22.902Z,38.00
2022-09-05T17:57:41.367Z,38.80
2022-09-05T18:02:56.179Z,39.60
2022-09-05T18:08:00.290Z,40.30
2022-09-05T18:13:32.244Z,40.30
2022-09-05T18:19:33.703Z,40.40
2022-09-05T18:24:07.857Z,41.50
2022-09-05T18:29:28.708Z,41.50
2022-09-05T18:35:27.989Z,42.10
2022-09-05T18:40:53.351Z,42.50
2022-09-05T18:46:08.160Z,42.40
2022-09-05T18:51:23.025Z,43.20
2022-09-05T18:56:32.803Z,42.70
2022-09-05T19:01:40.661Z,42.70
2022-09-05T19:06:49.233Z,43.10
2022-09-05T19:11:57.981Z,42.90
2022-09-05T19:17:27.407Z,43.20
2022-09-05T19:23:08.777Z,43.60
2022-09-05T19:32:37.480Z,43.40
2022-09-05T19:37:09.603Z,44.30
2022-09-05T19:40:32.141Z,44.10
2022-09-05T19:47:35.723Z,43.90
2022-09-05T19:50:05.730Z,44.10
2022-09-05T19:55:22.314Z,44.00
2022-09-05T20:00:28.145Z,44.50
2022-09-05T20:05:32.659Z,45.20
2022-09-05T20:10:37.397Z,45.10
2022-09-05T20:15:42.062Z,45.90
2022-09-05T20:20:52.562Z,45.60
2022-09-05T20:25:58.740Z,46.10
2022-09-05T20:31:08.448Z,46.30
2022-09-05T20:43:11.113Z,46.40
2022-09-05T20:43:23.649Z,46.10
2022-09-05T20:51:41.065Z,45.80
2022-09-05T20:54:22.376Z,46.10
2022-09-05T20:58:10.653Z,46.60
2022-09-05T21:03:27.315Z,46.40
2022-09-05T21:08:35.189Z,46.60
2022-09-05T21:13:52.218Z,46.50
2022-09-05T21:18:56.350Z,46.10
2022-09-05T21:24:16.176Z,46.10
2022-09-05T21:29:32.676Z,47.00
2022-09-05T21:34:44.814Z,46.00
2022-09-05T21:40:00.541Z,46.00
2022-09-05T21:47:40.211Z,46.00
2022-09-05T21:50:33.929Z,45.90
2022-09-05T21:59:33.301Z,45.60
2022-09-05T22:01:08.531Z,45.50
2022-09-05T22:06:14.116Z,46.50
2022-09-05T22:11:17.468Z,45.40
2022-09-05T22:16:25.253Z,45.50
2022-09-05T22:21:34.685Z,45.50
2022-09-05T22:27:06.253Z,45.70
2022-09-05T22:32:08.780Z,45.70
2022-09-05T22:37:16.297Z,45.80
2022-09-05T22:42:19.579Z,45.90
2022-09-05T22:47:26.088Z,45.90
2022-09-05T22:52:29.363Z,45.90
2022-09-05T22:57:32.951Z,45.80
2022-09-05T23:02:39.743Z,45.90
2022-09-05T23:07:43.106Z,45.90
2022-09-05T23:12:46.577Z,45.70
2022-09-05T23:17:56.066Z,45.40
2022-09-05T23:23:04.145Z,45.60
2022-09-05T23:28:09.031Z,45.40
2022-09-05T23:33:13.717Z,45.40
2022-09-05T23:38:17.036Z,45.10
2022-09-05T23:43:20.393Z,45.30
2022-09-05T23:48:25.605Z,45.60
2022-09-05T23:53:29.034Z,45.50
2022-09-05T23:58:32.710Z,45.50
